Time;durP1;ratioP1;P1;durP2;ratioP2;P2;SDS_P1;SDS_P2;PMS_P1;PMS_P2;Temp;Humidity;BMP_temperature;BMP_pressure;BME280_temperature;BME280_humidity;BME280_pressure;Samples;Min_cycle;Max_cycle;Signal;HPM_P1;HPM_P2
2024/04/11 00:01:26;;;;;;;;;;;5.00;1.00;;;;;;5420184;26;19933;-76
2024/04/11 00:03:52;;;;;;;;;;;5.00;1.00;;;;;;5419197;26;19998;-76
2024/04/11 00:06:18;;;;;;;;;;;5.00;1.00;;;;;;5406306;26;19933;-76
2024/04/11 00:08:43;;;;;;;;;;;5.00;1.00;;;;;;5409751;26;19961;-77
2024/04/11 00:11:14;;;;;;;;;;;4.90;1.00;;;;;;5403730;26;19929;-76
2024/04/11 00:13:51;;;;;;;;;;;4.90;1.00;;;;;;5430932;26;19928;-76
2024/04/11 00:16:18;;;;;;;;;;;4.90;1.00;;;;;;5426604;26;19944;-77
2024/04/11 00:18:50;;;;;;;;;;;4.90;1.00;;;;;;5428588;26;19933;-77
2024/04/11 00:21:26;;;;;;;;;;;4.80;1.00;;;;;;5419906;26;19928;-77
2024/04/11 00:23:56;;;;;;;;;;;4.60;1.00;;;;;;5419579;26;20027;-77
2024/04/11 00:26:32;;;;;;;;;;;4.60;1.00;;;;;;5419540;26;19941;-76
2024/04/11 00:28:58;;;;;;;;;;;4.60;1.00;;;;;;5397708;26;19929;-76
2024/04/11 00:31:25;;;;;;;;;;;4.60;1.00;;;;;;5401760;26;19929;-76
2024/04/11 00:33:55;;;;;;;;;;;4.60;1.00;;;;;;5420652;26;20260;-76
2024/04/11 00:36:24;;;;;;;;;;;4.50;1.00;;;;;;5419706;26;19998;-77
2024/04/11 00:38:56;;;;;;;;;;;4.50;1.00;;;;;;5419792;26;19941;-77
2024/04/11 00:41:21;;;;;;;;;;;4.50;1.00;;;;;;5422246;26;19929;-76
2024/04/11 00:43:50;;;;;;;;;;;4.50;1.00;;;;;;5436698;26;19936;-77
2024/04/11 00:46:17;;;;;;;;;;;4.50;1.00;;;;;;5439442;26;19928;-77
2024/04/11 00:48:43;;;;;;;;;;;4.40;1.00;;;;;;5436565;26;19928;-77
2024/04/11 00:51:20;;;;;;;;;;;4.50;1.00;;;;;;5423397;26;19940;-77
2024/04/11 00:53:58;;;;;;;;;;;4.40;1.00;;;;;;5401928;26;19929;-77
2024/04/11 00:56:44;;;;;;;;;;;4.40;1.00;;;;;;5416366;26;19937;-76
2024/04/11 00:59:11;;;;;;;;;;;4.30;1.00;;;;;;5419759;26;19933;-76
2024/04/11 01:01:37;;;;;;;;;;;4.30;1.00;;;;;;5419247;26;19933;-77
2024/04/11 01:04:33;;;;;;;;;;;4.30;1.00;;;;;;5418844;26;19955;-77
2024/04/11 01:07:09;;;;;;;;;;;4.30;1.00;;;;;;5435547;26;20257;-77
2024/04/11 01:09:37;;;;;;;;;;;4.10;1.00;;;;;;5442217;26;19929;-77
2024/04/11 01:12:07;;;;;;;;;;;4.10;1.00;;;;;;5418716;26;19939;-77
2024/04/11 01:14:33;;;;;;;;;;;4.20;1.00;;;;;;5418641;26;19937;-77
2024/04/11 01:16:59;;;;;;;;;;;4.10;1.00;;;;;;5416789;26;19936;-76
2024/04/11 01:19:26;;;;;;;;;;;4.10;1.00;;;;;;5422194;26;19936;-77
2024/04/11 01:22:00;;;;;;;;;;;4.00;1.00;;;;;;5417995;26;19928;-76
2024/04/11 01:24:44;;;;;;;;;;;4.00;1.00;;;;;;5418272;26;19933;-76
2024/04/11 01:27:30;;;;;;;;;;;4.10;1.00;;;;;;5417172;26;19935;-77
2024/04/11 01:29:57;;;;;;;;;;;4.00;1.00;;;;;;5418222;26;20330;-76
2024/04/11 01:32:24;;;;;;;;;;;4.00;1.00;;;;;;5418146;26;19936;-77
2024/04/11 01:34:56;;;;;;;;;;;4.00;1.00;;;;;;5413325;26;19957;-76
2024/04/11 01:37:26;;;;;;;;;;;3.90;1.00;;;;;;5417392;26;19957;-77
2024/04/11 01:39:54;;;;;;;;;;;6.40;1.00;;;;;;5393906;26;20257;-77
2024/04/11 01:42:20;;;;;;;;;;;3.90;1.00;;;;;;5417993;26;19983;-77
2024/04/11 01:44:46;;;;;;;;;;;3.90;1.00;;;;;;5430765;26;19929;-77
2024/04/11 01:47:15;;;;;;;;;;;3.90;1.00;;;;;;5417559;26;19936;-77
2024/04/11 01:49:43;;;;;;;;;;;3.90;1.00;;;;;;5417518;26;19936;-77
2024/04/11 01:52:12;;;;;;;;;;;3.90;1.00;;;;;;5417461;26;19929;-77
2024/04/11 01:54:38;;;;;;;;;;;3.80;1.00;;;;;;5412182;26;19933;-77
2024/04/11 01:57:05;;;;;;;;;;;3.70;1.00;;;;;;5417543;26;19941;-77
2024/04/11 01:59:32;;;;;;;;;;;3.50;1.00;;;;;;5417680;26;20269;-77
2024/04/11 02:01:57;;;;;;;;;;;3.50;1.00;;;;;;5417454;26;20310;-77
2024/04/11 02:04:23;;;;;;;;;;;3.60;1.00;;;;;;5404929;26;19941;-77
2024/04/11 02:06:51;;;;;;;;;;;3.50;1.00;;;;;;5407919;26;19928;-77
2024/04/11 02:09:22;;;;;;;;;;;3.40;1.00;;;;;;5396823;26;19937;-77
2024/04/11 02:11:51;;;;;;;;;;;3.40;1.00;;;;;;5417257;26;19969;-77
2024/04/11 02:14:18;;;;;;;;;;;3.40;1.00;;;;;;5417827;26;20018;-76
2024/04/11 02:16:44;;;;;;;;;;;3.40;1.00;;;;;;5417111;26;19937;-76
2024/04/11 02:19:12;;;;;;;;;;;3.30;1.00;;;;;;5427151;26;19932;-77
2024/04/11 02:21:44;;;;;;;;;;;3.40;1.00;;;;;;5423039;26;19937;-77
2024/04/11 02:24:16;;;;;;;;;;;3.30;1.00;;;;;;5417207;26;19929;-76
2024/04/11 02:26:48;;;;;;;;;;;3.30;1.00;;;;;;5416928;26;20368;-77
2024/04/11 02:29:28;;;;;;;;;;;3.40;1.00;;;;;;5417385;26;20007;-76
2024/04/11 02:31:56;;;;;;;;;;;3.40;1.00;;;;;;5395740;26;19929;-77
2024/04/11 02:34:26;;;;;;;;;;;3.40;1.00;;;;;;5417143;26;19941;-77
2024/04/11 02:36:55;;;;;;;;;;;3.30;1.00;;;;;;5416181;26;19929;-77
2024/04/11 02:39:21;;;;;;;;;;;3.20;1.00;;;;;;5420571;26;19929;-77
2024/04/11 02:41:47;;;;;;;;;;;3.20;1.00;;;;;;5420698;26;19936;-77
2024/04/11 02:44:14;;;;;;;;;;;3.20;1.00;;;;;;5431102;26;19929;-76
2024/04/11 02:46:39;;;;;;;;;;;3.20;1.00;;;;;;5420827;26;20368;-76
2024/04/11 02:49:05;;;;;;;;;;;3.20;1.00;;;;;;5420219;26;19929;-77
2024/04/11 02:51:32;;;;;;;;;;;3.20;1.00;;;;;;5420128;26;19929;-76
2024/04/11 02:53:58;;;;;;;;;;;3.20;1.00;;;;;;5419423;26;19933;-77
2024/04/11 02:56:28;;;;;;;;;;;3.10;1.00;;;;;;5398373;26;19998;-77
2024/04/11 02:58:56;;;;;;;;;;;3.10;1.00;;;;;;5451033;26;20588;-77
2024/04/11 03:01:21;;;;;;;;;;;3.10;1.00;;;;;;5440017;26;19937;-77
2024/04/11 03:03:47;;;;;;;;;;;3.10;1.00;;;;;;5431032;26;19936;-77
2024/04/11 03:06:17;;;;;;;;;;;3.10;1.00;;;;;;5456208;26;19932;-76
2024/04/11 03:08:44;;;;;;;;;;;3.10;1.00;;;;;;5438774;26;19929;-76
2024/04/11 03:11:14;;;;;;;;;;;3.00;1.00;;;;;;5419995;26;20261;-77
2024/04/11 03:13:44;;;;;;;;;;;2.90;1.00;;;;;;5420142;26;19952;-76
2024/04/11 03:16:31;;;;;;;;;;;2.90;1.00;;;;;;5420202;26;19929;-77
2024/04/11 03:19:08;;;;;;;;;;;2.80;1.00;;;;;;5431745;26;19928;-77
2024/04/11 03:21:34;;;;;;;;;;;2.90;1.00;;;;;;5397742;26;19933;-77
2024/04/11 03:23:59;;;;;;;;;;;2.90;1.00;;;;;;5419789;26;19972;-77
2024/04/11 03:26:26;;;;;;;;;;;2.90;1.00;;;;;;5419875;26;19936;-77
2024/04/11 03:28:53;;;;;;;;;;;2.90;1.00;;;;;;5419780;26;19930;-77
2024/04/11 03:31:21;;;;;;;;;;;2.80;1.00;;;;;;5420324;26;19929;-77
2024/04/11 03:33:51;;;;;;;;;;;2.90;1.00;;;;;;5398326;26;19933;-77
2024/04/11 03:36:19;;;;;;;;;;;2.80;1.00;;;;;;5421437;26;19940;-76
2024/04/11 03:38:54;;;;;;;;;;;2.80;1.00;;;;;;5418283;26;19940;-77
2024/04/11 03:41:20;;;;;;;;;;;2.80;1.00;;;;;;5403852;26;19998;-77
2024/04/11 03:43:46;;;;;;;;;;;2.80;1.00;;;;;;5409731;26;20266;-77
2024/04/11 03:46:19;;;;;;;;;;;2.80;1.00;;;;;;5394960;26;19944;-77
2024/04/11 03:48:50;;;;;;;;;;;2.80;1.00;;;;;;5398057;26;19993;-77
2024/04/11 03:51:20;;;;;;;;;;;2.70;1.00;;;;;;5419125;26;19929;-77
2024/04/11 03:53:56;;;;;;;;;;;2.80;1.00;;;;;;5421890;26;19933;-77
2024/04/11 03:56:23;;;;;;;;;;;2.70;1.00;;;;;;5425992;26;19960;-77
2024/04/11 03:58:52;;;;;;;;;;;2.70;1.00;;;;;;5399560;26;19933;-77
2024/04/11 04:01:22;;;;;;;;;;;2.70;1.00;;;;;;5419744;26;19929;-77
2024/04/11 04:03:49;;;;;;;;;;;2.70;1.00;;;;;;5419191;26;19928;-77
2024/04/11 04:06:21;;;;;;;;;;;2.60;1.00;;;;;;5417589;26;19937;-77
2024/04/11 04:08:50;;;;;;;;;;;2.60;1.00;;;;;;5392636;26;19936;-77
2024/04/11 04:11:23;;;;;;;;;;;2.60;1.00;;;;;;5417402;26;19929;-78
2024/04/11 04:13:50;;;;;;;;;;;2.60;1.00;;;;;;5427997;26;20248;-77
2024/04/11 04:16:26;;;;;;;;;;;2.50;1.00;;;;;;5421828;26;19944;-76
2024/04/11 04:18:52;;;;;;;;;;;2.50;1.00;;;;;;5419245;26;19998;-78
2024/04/11 04:21:20;;;;;;;;;;;2.50;1.00;;;;;;5434811;26;19936;-78
2024/04/11 04:23:54;;;;;;;;;;;2.50;1.00;;;;;;5419923;26;19929;-77
2024/04/11 04:26:39;;;;;;;;;;;2.40;1.00;;;;;;5424480;26;19936;-77
2024/04/11 04:29:04;;;;;;;;;;;2.40;1.00;;;;;;5423805;26;19929;-77
2024/04/11 04:31:31;;;;;;;;;;;2.40;1.00;;;;;;5419147;26;19929;-77
2024/04/11 04:33:57;;;;;;;;;;;2.40;1.00;;;;;;5418911;26;19930;-78
2024/04/11 04:36:42;;;;;;;;;;;2.40;1.00;;;;;;5429743;26;19944;-77
2024/04/11 04:39:16;;;;;;;;;;;2.30;1.00;;;;;;5395264;26;19929;-77
2024/04/11 04:41:44;;;;;;;;;;;2.30;1.00;;;;;;5418885;26;19929;-77
2024/04/11 04:44:16;;;;;;;;;;;2.30;1.00;;;;;;5418677;26;20371;-77
2024/04/11 04:46:43;;;;;;;;;;;2.30;1.00;;;;;;5418274;26;20001;-77
2024/04/11 04:49:09;;;;;;;;;;;2.30;1.00;;;;;;5418597;26;19929;-78
2024/04/11 04:51:50;;;;;;;;;;;2.30;1.00;;;;;;5418359;26;20286;-77
2024/04/11 04:54:16;;;;;;;;;;;2.30;1.00;;;;;;5418894;26;19929;-77
2024/04/11 04:56:43;;;;;;;;;;;2.40;1.00;;;;;;5424143;26;19929;-77
2024/04/11 04:59:09;;;;;;;;;;;2.30;1.00;;;;;;5418480;26;19969;-77
2024/04/11 05:01:44;;;;;;;;;;;2.30;1.00;;;;;;5418359;26;19940;-77
2024/04/11 05:04:13;;;;;;;;;;;2.30;1.00;;;;;;5404392;26;19937;-78
2024/04/11 05:06:39;;;;;;;;;;;2.30;1.00;;;;;;5419115;26;19929;-77
2024/04/11 05:09:10;;;;;;;;;;;2.20;1.00;;;;;;5424961;26;20268;-78
2024/04/11 05:11:44;;;;;;;;;;;2.30;1.00;;;;;;5414634;26;19933;-81
2024/04/11 05:14:09;;;;;;;;;;;2.30;1.00;;;;;;5416587;26;19973;-79
2024/04/11 05:16:44;;;;;;;;;;;2.40;1.00;;;;;;5416676;26;19929;-81
2024/04/11 05:19:15;;;;;;;;;;;2.40;1.00;;;;;;5437475;26;19933;-76
2024/04/11 05:21:41;;;;;;;;;;;2.40;1.00;;;;;;5417893;26;19929;-77
2024/04/11 05:24:10;;;;;;;;;;;2.50;1.00;;;;;;5417988;26;19929;-77
2024/04/11 05:26:36;;;;;;;;;;;2.50;1.00;;;;;;5418018;26;19961;-77
2024/04/11 05:29:04;;;;;;;;;;;2.60;1.00;;;;;;5417915;26;19929;-77
2024/04/11 05:31:30;;;;;;;;;;;2.60;1.00;;;;;;5418411;26;19953;-77
2024/04/11 05:34:06;;;;;;;;;;;2.70;1.00;;;;;;5441598;26;19936;-77
2024/04/11 05:36:32;;;;;;;;;;;2.70;1.00;;;;;;5413273;26;19957;-77
2024/04/11 05:39:03;;;;;;;;;;;2.80;1.00;;;;;;5402591;26;20004;-76
2024/04/11 05:41:29;;;;;;;;;;;2.80;1.00;;;;;;5433179;26;20373;-77
2024/04/11 05:43:56;;;;;;;;;;;2.90;1.00;;;;;;5434933;26;19929;-77
2024/04/11 05:46:25;;;;;;;;;;;2.90;1.00;;;;;;5434174;26;19928;-77
2024/04/11 05:48:57;;;;;;;;;;;3.00;1.00;;;;;;5418138;26;19940;-78
2024/04/11 05:51:23;;;;;;;;;;;3.20;1.00;;;;;;5426456;26;19929;-77
2024/04/11 05:53:51;;;;;;;;;;;3.20;1.00;;;;;;5437543;26;20272;-78
2024/04/11 05:56:20;;;;;;;;;;;3.30;1.00;;;;;;5446926;26;19929;-78
2024/04/11 05:58:49;;;;;;;;;;;3.50;1.00;;;;;;5422602;26;19998;-77
2024/04/11 06:01:31;;;;;;;;;;;3.50;1.00;;;;;;5420763;26;19929;-78
2024/04/11 06:04:08;;;;;;;;;;;3.70;1.00;;;;;;5414344;26;20433;-77
2024/04/11 06:06:34;;;;;;;;;;;3.90;1.00;;;;;;5403401;26;19929;-77
2024/04/11 06:09:03;;;;;;;;;;;4.00;1.00;;;;;;5430276;26;19932;-78
2024/04/11 06:11:29;;;;;;;;;;;4.10;1.00;;;;;;5421296;26;20429;-77
2024/04/11 06:13:55;;;;;;;;;;;4.30;1.00;;;;;;5410487;26;19937;-77
2024/04/11 06:16:26;;;;;;;;;;;4.40;1.00;;;;;;5432635;26;19964;-78
2024/04/11 06:18:56;;;;;;;;;;;4.60;1.00;;;;;;5443904;26;19935;-77
2024/04/11 06:21:36;;;;;;;;;;;4.80;1.00;;;;;;5436185;26;19929;-77
2024/04/11 06:24:02;;;;;;;;;;;5.00;1.00;;;;;;5409402;26;19941;-77
2024/04/11 06:26:32;;;;;;;;;;;5.20;1.00;;;;;;5428746;26;20001;-78
2024/04/11 06:28:58;;;;;;;;;;;5.60;1.00;;;;;;5442111;26;19936;-78
2024/04/11 06:31:24;;;;;;;;;;;5.70;1.00;;;;;;5437754;26;20023;-78
2024/04/11 06:33:54;;;;;;;;;;;6.00;1.00;;;;;;5427219;26;20391;-78
2024/04/11 06:36:20;;;;;;;;;;;6.40;1.00;;;;;;5446493;26;20005;-78
2024/04/11 06:38:46;;;;;;;;;;;6.50;1.00;;;;;;5431227;26;19929;-78
2024/04/11 06:41:22;;;;;;;;;;;6.80;1.00;;;;;;5420223;26;19948;-77
2024/04/11 06:43:56;;;;;;;;;;;6.90;1.00;;;;;;5416306;26;19941;-77
2024/04/11 06:46:22;;;;;;;;;;;7.40;1.00;;;;;;5432880;26;19962;-78
2024/04/11 06:48:57;;;;;;;;;;;7.40;1.00;;;;;;5430192;26;19936;-78
2024/04/11 06:51:30;;;;;;;;;;;7.60;1.00;;;;;;5444272;26;20524;-77
2024/04/11 06:53:57;;;;;;;;;;;7.80;1.00;;;;;;5433006;26;19929;-77
2024/04/11 06:56:24;;;;;;;;;;;7.90;1.00;;;;;;5420311;26;19929;-77
2024/04/11 06:58:50;;;;;;;;;;;8.30;1.00;;;;;;5419599;26;19994;-77
2024/04/11 07:01:26;;;;;;;;;;;8.40;1.00;;;;;;5432604;26;19940;-77
2024/04/11 07:04:00;;;;;;;;;;;8.50;1.00;;;;;;5423113;26;19929;-77
2024/04/11 07:06:25;;;;;;;;;;;8.80;1.00;;;;;;5419402;26;19933;-78
2024/04/11 07:08:54;;;;;;;;;;;8.90;1.00;;;;;;5423941;26;19937;-78
2024/04/11 07:11:32;;;;;;;;;;;9.10;1.00;;;;;;5432076;26;20009;-78
2024/04/11 07:14:15;;;;;;;;;;;9.20;1.00;;;;;;5419657;26;19940;-78
2024/04/11 07:17:02;;;;;;;;;;;9.40;1.00;;;;;;5419079;26;19935;-78
2024/04/11 07:19:28;;;;;;;;;;;9.40;1.00;;;;;;5425192;26;19928;-82
2024/04/11 07:22:00;;;;;;;;;;;9.50;1.00;;;;;;5431316;26;19928;-76
2024/04/11 07:24:26;;;;;;;;;;;9.60;1.00;;;;;;5431136;26;20517;-76
2024/04/11 07:26:51;;;;;;;;;;;9.80;1.00;;;;;;5418727;26;19998;-76
2024/04/11 07:29:21;;;;;;;;;;;9.90;1.00;;;;;;5396657;26;19944;-77
2024/04/11 07:31:52;;;;;;;;;;;9.90;1.00;;;;;;5412721;26;19936;-78
2024/04/11 07:34:17;;;;;;;;;;;9.90;1.00;;;;;;5419774;26;20033;-78
2024/04/11 07:36:48;;;;;;;;;;;9.80;1.00;;;;;;5419641;26;19933;-77
2024/04/11 07:39:13;;;;;;;;;;;9.80;1.00;;;;;;5415899;26;19933;-77
2024/04/11 07:41:45;;;;;;;;;;;9.90;1.00;;;;;;5408535;26;19993;-77
2024/04/11 07:44:11;;;;;;;;;;;10.00;1.00;;;;;;5404670;26;19943;-77
2024/04/11 07:46:38;;;;;;;;;;;10.10;1.00;;;;;;5419631;26;19936;-77
2024/04/11 07:49:08;;;;;;;;;;;10.30;1.00;;;;;;5413301;26;19929;-76
2024/04/11 07:51:34;;;;;;;;;;;10.40;1.00;;;;;;5413661;26;19929;-76
2024/04/11 07:54:03;;;;;;;;;;;10.60;1.00;;;;;;5394884;26;20002;-76
2024/04/11 07:56:29;;;;;;;;;;;10.70;1.00;;;;;;5419010;26;19936;-76
2024/04/11 07:58:57;;;;;;;;;;;10.70;1.00;;;;;;5399839;26;19930;-76
2024/04/11 08:01:34;;;;;;;;;;;10.80;1.00;;;;;;5387155;26;19929;-76
2024/04/11 08:04:01;;;;;;;;;;;11.00;1.00;;;;;;5411326;26;19998;-76
2024/04/11 08:06:34;;;;;;;;;;;11.20;1.00;;;;;;5409067;26;20034;-77
2024/04/11 08:09:00;;;;;;;;;;;11.40;1.00;;;;;;5427028;26;19941;-76
2024/04/11 08:11:30;;;;;;;;;;;11.60;1.00;;;;;;5439760;26;19936;-76
2024/04/11 08:13:57;;;;;;;;;;;11.80;1.00;;;;;;5422749;26;20458;-76
2024/04/11 08:16:29;;;;;;;;;;;12.10;1.00;;;;;;5427396;26;19997;-76
2024/04/11 08:18:55;;;;;;;;;;;12.10;1.00;;;;;;5410532;26;20268;-76
2024/04/11 08:21:26;;;;;;;;;;;12.20;1.00;;;;;;5426386;26;19929;-76
2024/04/11 08:23:52;;;;;;;;;;;12.20;1.00;;;;;;5431006;26;19944;-76
2024/04/11 08:26:17;;;;;;;;;;;12.40;1.00;;;;;;5431085;26;19929;-76
2024/04/11 08:28:43;;;;;;;;;;;12.60;1.00;;;;;;5444243;26;19929;-76
2024/04/11 08:31:09;;;;;;;;;;;12.70;1.00;;;;;;5427548;26;19929;-77
2024/04/11 08:33:36;;;;;;;;;;;12.70;1.00;;;;;;5423949;26;20002;-76
2024/04/11 08:36:08;;;;;;;;;;;12.70;1.00;;;;;;5422157;26;19929;-78
2024/04/11 08:38:41;;;;;;;;;;;12.80;1.00;;;;;;5418175;26;19965;-77
2024/04/11 08:41:10;;;;;;;;;;;13.00;1.00;;;;;;5417521;26;19937;-77
2024/04/11 08:43:36;;;;;;;;;;;13.20;1.00;;;;;;5446045;26;19972;-76
2024/04/11 08:46:09;;;;;;;;;;;13.40;1.00;;;;;;5436002;26;19929;-77
2024/04/11 08:48:37;;;;;;;;;;;13.50;1.00;;;;;;5424338;26;19993;-76
2024/04/11 08:51:14;;;;;;;;;;;13.70;1.00;;;;;;5435010;26;19929;-76
2024/04/11 08:53:58;;;;;;;;;;;13.50;1.00;;;;;;5423251;26;21309;-87
2024/04/11 08:56:24;;;;;;;;;;;13.70;1.00;;;;;;5406147;26;20542;-86
2024/04/11 08:58:50;;;;;;;;;;;13.70;1.00;;;;;;5424204;26;19958;-82
2024/04/11 09:01:17;;;;;;;;;;;13.90;1.00;;;;;;5402428;26;19932;-78
2024/04/11 09:03:47;;;;;;;;;;;14.10;1.00;;;;;;5411190;26;19936;-79
2024/04/11 09:06:23;;;;;;;;;;;14.20;1.00;;;;;;5429420;26;19957;-77
2024/04/11 09:08:52;;;;;;;;;;;14.50;1.00;;;;;;5435800;26;19936;-83
2024/04/11 09:11:25;;;;;;;;;;;14.90;1.00;;;;;;5404152;26;19939;-80
2024/04/11 09:13:58;;;;;;;;;;;14.90;1.00;;;;;;5395498;26;19929;-79
2024/04/11 09:16:27;;;;;;;;;;;15.20;1.00;;;;;;5410640;26;19962;-78
2024/04/11 09:19:05;;;;;;;;;;;15.30;1.00;;;;;;5395981;26;20280;-77
2024/04/11 09:21:32;;;;;;;;;;;15.30;1.00;;;;;;5436212;26;19932;-77
2024/04/11 09:23:58;;;;;;;;;;;15.60;1.00;;;;;;5433722;26;19928;-78
2024/04/11 09:26:29;;;;;;;;;;;15.70;1.00;;;;;;5418075;26;19936;-78
2024/04/11 09:28:55;;;;;;;;;;;16.10;1.00;;;;;;5418159;26;20367;-79
2024/04/11 09:31:20;;;;;;;;;;;16.10;1.00;;;;;;5417997;26;19959;-78
2024/04/11 09:33:57;;;;;;;;;;;16.40;1.00;;;;;;5417985;26;19999;-78
2024/04/11 09:36:27;;;;;;;;;;;16.40;1.00;;;;;;5418110;26;19939;-78
2024/04/11 09:39:04;;;;;;;;;;;16.80;1.00;;;;;;5417996;26;19937;-78
2024/04/11 09:41:34;;;;;;;;;;;16.70;1.00;;;;;;5403398;26;19937;-78
2024/04/11 09:44:03;;;;;;;;;;;17.00;1.00;;;;;;5446613;26;19928;-78
2024/04/11 09:46:40;;;;;;;;;;;17.40;1.00;;;;;;5417711;26;19939;-78
2024/04/11 09:49:09;;;;;;;;;;;17.60;1.00;;;;;;5417119;26;19929;-78
2024/04/11 09:51:36;;;;;;;;;;;18.00;1.00;;;;;;5416937;26;19937;-78
2024/04/11 09:54:03;;;;;;;;;;;18.50;1.00;;;;;;5417412;26;19936;-78
2024/04/11 09:56:29;;;;;;;;;;;18.80;1.00;;;;;;5408492;26;19929;-78
2024/04/11 09:58:57;;;;;;;;;;;18.90;1.00;;;;;;5401763;26;19936;-78
2024/04/11 10:01:32;;;;;;;;;;;18.70;1.00;;;;;;5402608;26;20330;-78
2024/04/11 10:04:03;;;;;;;;;;;18.30;1.00;;;;;;5416715;26;19929;-78
2024/04/11 10:06:30;;;;;;;;;;;18.60;1.00;;;;;;5413612;26;19936;-77
2024/04/11 10:09:17;;;;;;;;;;;18.60;1.00;;;;;;5419864;26;19929;-76
2024/04/11 10:11:47;;;;;;;;;;;18.40;1.00;;;;;;5411178;26;19929;-77
2024/04/11 10:14:16;;;;;;;;;;;18.30;1.00;;;;;;5427429;26;19953;-77
2024/04/11 10:16:55;;;;;;;;;;;19.10;1.00;;;;;;5425475;26;19928;-77
2024/04/11 10:19:33;;;;;;;;;;;18.40;1.00;;;;;;5420630;26;20391;-77
2024/04/11 10:22:05;;;;;;;;;;;18.70;1.00;;;;;;5427639;26;20375;-78
2024/04/11 10:24:34;;;;;;;;;;;18.80;1.00;;;;;;5418012;26;19968;-78
2024/04/11 10:27:20;;;;;;;;;;;18.90;1.00;;;;;;5421282;26;19928;-81
2024/04/11 10:29:49;;;;;;;;;;;18.40;1.00;;;;;;5413545;26;20055;-82
2024/04/11 10:32:18;;;;;;;;;;;18.50;1.00;;;;;;5426651;26;20342;-82
2024/04/11 10:34:56;;;;;;;;;;;18.60;1.00;;;;;;5416518;26;19937;-80
2024/04/11 10:37:26;;;;;;;;;;;18.40;1.00;;;;;;5437073;26;20322;-77
2024/04/11 10:39:55;;;;;;;;;;;18.00;1.00;;;;;;5434563;26;19929;-77
2024/04/11 10:43:11;;;;;;;;;;;18.00;1.00;;;;;;5438301;26;20325;-78
2024/04/11 10:45:34;;;;;;;;;;;17.70;1.00;;;;;;5417329;26;19936;-77
2024/04/11 10:48:00;;;;;;;;;;;17.70;1.00;;;;;;5414097;26;19929;-75
2024/04/11 10:50:27;;;;;;;;;;;17.70;1.00;;;;;;5408357;26;19961;-73
2024/04/11 10:52:53;;;;;;;;;;;17.60;1.00;;;;;;5411768;26;19936;-77
2024/04/11 10:55:28;;;;;;;;;;;17.70;1.00;;;;;;5437893;26;19940;-77
2024/04/11 10:58:09;;;;;;;;;;;17.60;1.00;;;;;;5413075;26;20005;-70
2024/04/11 11:03:40;;;;;;;;;;;17.90;1.00;;;;;;5429625;26;20451;-74
2024/04/11 11:06:12;;;;;;;;;;;18.10;1.00;;;;;;5434160;26;20020;-74
2024/04/11 11:08:42;;;;;;;;;;;18.50;1.00;;;;;;5415869;26;20341;-70
2024/04/11 11:11:11;;;;;;;;;;;18.10;1.00;;;;;;5425450;26;19937;-71
2024/04/11 11:13:40;;;;;;;;;;;18.40;1.00;;;;;;5439018;26;19929;-72
2024/04/11 11:16:07;;;;;;;;;;;17.90;1.00;;;;;;5432115;26;19936;-71
2024/04/11 11:18:39;;;;;;;;;;;18.10;1.00;;;;;;5438099;26;19936;-72
2024/04/11 11:21:07;;;;;;;;;;;18.10;1.00;;;;;;5428820;26;19929;-72
2024/04/11 11:23:34;;;;;;;;;;;18.50;1.00;;;;;;5395234;26;20371;-71
2024/04/11 11:25:59;;;;;;;;;;;18.90;1.00;;;;;;5416464;26;19929;-71
2024/04/11 11:28:27;;;;;;;;;;;19.30;1.00;;;;;;5419164;26;20354;-72
2024/04/11 11:30:53;;;;;;;;;;;19.50;1.00;;;;;;5404633;26;19940;-71
2024/04/11 11:33:23;;;;;;;;;;;19.30;1.00;;;;;;5394902;26;19936;-71
2024/04/11 11:35:50;;;;;;;;;;;19.50;1.00;;;;;;5420179;26;19936;-72
2024/04/11 11:38:16;;;;;;;;;;;19.90;1.00;;;;;;5420339;26;19944;-71
2024/04/11 11:40:46;;;;;;;;;;;19.80;1.00;;;;;;5418980;26;19935;-72
2024/04/11 11:43:16;;;;;;;;;;;20.40;1.00;;;;;;5417522;26;19929;-71
2024/04/11 11:48:31;;;;;;;;;;;20.00;1.00;;;;;;5418286;26;19979;-71
2024/04/11 11:51:00;;;;;;;;;;;20.00;1.00;;;;;;5422435;26;19972;-71
2024/04/11 11:53:32;;;;;;;;;;;19.90;1.00;;;;;;5408537;26;19998;-71
2024/04/11 11:55:58;;;;;;;;;;;20.40;1.00;;;;;;5423953;26;19930;-71
2024/04/11 11:58:24;;;;;;;;;;;20.40;1.00;;;;;;5410460;26;19937;-72
2024/04/11 12:00:50;;;;;;;;;;;20.60;1.00;;;;;;5409201;26;19929;-71
2024/04/11 12:03:20;;;;;;;;;;;20.40;1.00;;;;;;5416105;26;20285;-71
2024/04/11 12:05:50;;;;;;;;;;;20.70;1.00;;;;;;5428568;26;20429;-74
2024/04/11 12:08:16;;;;;;;;;;;21.10;1.00;;;;;;5429019;26;19993;-71
2024/04/11 12:13:35;;;;;;;;;;;21.00;1.00;;;;;;5418087;26;19938;-71
2024/04/11 12:16:04;;;;;;;;;;;21.00;1.00;;;;;;5419257;26;19957;-71
2024/04/11 12:18:30;;;;;;;;;;;20.70;1.00;;;;;;5427128;26;20322;-71
2024/04/11 12:20:59;;;;;;;;;;;21.00;1.00;;;;;;5417289;26;19946;-74
2024/04/11 12:23:30;;;;;;;;;;;21.20;1.00;;;;;;5445660;26;19956;-75
2024/04/11 12:25:56;;;;;;;;;;;20.80;1.00;;;;;;5431346;26;20268;-75
2024/04/11 12:28:22;;;;;;;;;;;20.80;1.00;;;;;;5427667;26;19929;-75
2024/04/11 12:31:00;;;;;;;;;;;20.70;1.00;;;;;;5435605;26;19937;-76
2024/04/11 12:33:27;;;;;;;;;;;20.50;1.00;;;;;;5425124;26;19948;-75
2024/04/11 12:35:55;;;;;;;;;;;20.10;1.00;;;;;;5423456;26;19937;-75
2024/04/11 12:38:21;;;;;;;;;;;19.90;1.00;;;;;;5419290;26;19933;-71
2024/04/11 12:40:50;;;;;;;;;;;20.00;1.00;;;;;;5436110;26;20032;-75
2024/04/11 12:43:19;;;;;;;;;;;19.80;1.00;;;;;;5438464;26;20023;-75
2024/04/11 12:45:54;;;;;;;;;;;19.80;1.00;;;;;;5409648;26;19936;-75
2024/04/11 12:48:23;;;;;;;;;;;19.50;1.00;;;;;;5431992;26;19937;-75
2024/04/11 12:50:50;;;;;;;;;;;19.60;1.00;;;;;;5430093;26;20577;-75
2024/04/11 12:53:21;;;;;;;;;;;19.70;1.00;;;;;;5431244;26;19998;-75
2024/04/11 12:55:52;;;;;;;;;;;20.00;1.00;;;;;;5430801;26;19938;-71
2024/04/11 12:58:24;;;;;;;;;;;20.20;1.00;;;;;;5416518;26;19933;-71
2024/04/11 13:00:57;;;;;;;;;;;20.40;1.00;;;;;;5418331;26;19961;-71
2024/04/11 13:06:08;;;;;;;;;;;20.60;1.00;;;;;;5422542;26;19928;-71
2024/04/11 13:08:34;;;;;;;;;;;20.60;1.00;;;;;;5426288;26;19998;-75
2024/04/11 13:11:13;;;;;;;;;;;19.90;1.00;;;;;;5419449;26;20261;-75
2024/04/11 13:13:39;;;;;;;;;;;20.20;1.00;;;;;;5428152;26;19937;-76
2024/04/11 13:16:09;;;;;;;;;;;20.00;1.00;;;;;;5422993;26;19944;-78
2024/04/11 13:18:39;;;;;;;;;;;20.00;1.00;;;;;;5407324;26;19933;-75
2024/04/11 13:21:13;;;;;;;;;;;20.20;1.00;;;;;;5432102;26;20260;-75
2024/04/11 13:23:42;;;;;;;;;;;20.30;1.00;;;;;;5433839;26;19930;-76
2024/04/11 13:26:09;;;;;;;;;;;20.20;1.00;;;;;;5423307;26;20329;-75
2024/04/11 13:28:41;;;;;;;;;;;19.60;1.00;;;;;;5430133;26;19929;-75
2024/04/11 13:31:10;;;;;;;;;;;19.70;1.00;;;;;;5423373;26;19936;-75
2024/04/11 13:33:42;;;;;;;;;;;19.90;1.00;;;;;;5435903;26;20308;-74
2024/04/11 13:36:12;;;;;;;;;;;20.00;1.00;;;;;;5431529;26;19929;-76
2024/04/11 13:38:42;;;;;;;;;;;19.70;1.00;;;;;;5435688;26;19929;-76
2024/04/11 13:43:42;;;;;;;;;;;19.80;1.00;;;;;;5429099;26;19936;-76
2024/04/11 13:46:08;;;;;;;;;;;20.10;1.00;;;;;;5405292;26;19937;-76
2024/04/11 13:48:36;;;;;;;;;;;20.00;1.00;;;;;;5404805;26;19944;-76
2024/04/11 13:51:09;;;;;;;;;;;20.20;1.00;;;;;;5425919;26;19929;-77
2024/04/11 13:53:44;;;;;;;;;;;20.40;1.00;;;;;;5404196;26;19935;-77
2024/04/11 13:56:14;;;;;;;;;;;20.30;1.00;;;;;;5417689;26;20403;-77
2024/04/11 13:58:51;;;;;;;;;;;20.20;1.00;;;;;;5417557;26;19933;-77
2024/04/11 14:01:31;;;;;;;;;;;20.30;1.00;;;;;;5427942;26;20442;-78
2024/04/11 14:04:05;;;;;;;;;;;20.40;1.00;;;;;;5428868;26;19955;-77
2024/04/11 14:09:28;;;;;;;;;;;19.90;1.00;;;;;;5379408;26;19930;-77
2024/04/11 14:11:57;;;;;;;;;;;20.10;1.00;;;;;;5378455;26;19962;-76
2024/04/11 14:14:26;;;;;;;;;;;20.50;1.00;;;;;;5361016;26;20306;-81
2024/04/11 14:17:06;;;;;;;;;;;20.50;1.00;;;;;;5384116;26;19999;-80
2024/04/11 14:19:36;;;;;;;;;;;20.70;1.00;;;;;;5387024;26;19965;-80
2024/04/11 14:22:29;;;;;;;;;;;21.00;1.00;;;;;;5389773;26;21259;-80
2024/04/11 14:24:58;;;;;;;;;;;21.30;1.00;;;;;;5411473;26;19933;-78
2024/04/11 14:27:33;;;;;;;;;;;21.10;1.00;;;;;;5399528;26;19930;-79
2024/04/11 14:30:03;;;;;;;;;;;21.20;1.00;;;;;;5406692;26;19933;-79
2024/04/11 14:32:56;;;;;;;;;;;21.20;1.00;;;;;;5398685;26;19929;-81
2024/04/11 14:36:19;;;;;;;;;;;20.90;1.00;;;;;;5379424;26;19957;-83
2024/04/11 14:38:08;;;;;;;;;;;20.20;1.00;;;;;;5390071;26;19929;-82
2024/04/11 14:40:38;;;;;;;;;;;20.30;1.00;;;;;;5382717;26;20355;-81
2024/04/11 14:43:10;;;;;;;;;;;20.30;1.00;;;;;;5372644;26;19933;-80
2024/04/11 14:45:41;;;;;;;;;;;20.40;1.00;;;;;;5373204;26;20265;-80
2024/04/11 14:48:18;;;;;;;;;;;20.50;1.00;;;;;;5420575;26;19937;-79
2024/04/11 14:50:55;;;;;;;;;;;20.50;1.00;;;;;;5412408;26;19929;-80
2024/04/11 14:53:33;;;;;;;;;;;20.60;1.00;;;;;;5405546;26;19929;-82
2024/04/11 14:58:53;;;;;;;;;;;22.40;1.00;;;;;;5422705;26;19935;-79
2024/04/11 15:01:30;;;;;;;;;;;22.80;1.00;;;;;;5434702;26;19962;-79
2024/04/11 15:03:59;;;;;;;;;;;23.70;1.00;;;;;;5417371;26;19939;-80
2024/04/11 15:06:28;;;;;;;;;;;24.50;1.00;;;;;;5419659;26;19937;-80
2024/04/11 15:08:59;;;;;;;;;;;25.10;1.00;;;;;;5416182;26;19929;-80
2024/04/11 15:11:33;;;;;;;;;;;25.10;1.00;;;;;;5417008;26;20283;-80
2024/04/11 15:14:04;;;;;;;;;;;25.40;1.00;;;;;;5416999;26;19929;-80